KGTF

Great Falls International Airport

Great Falls, Montana, USA
METAR KGTF 231353Z 25007KT 10SM CLR M22/M25 A3001 RMK AO2 SLP263 T12221250
Observed Flight Rules
Feb-23 @ 13:53 UTC (47 minutes ago) Visual Flight Rules
Wind Visibility Clouds
250° at 7 knots 10 miles
  • Clear skies
Temperatures Readings
Current -22°C / -8°F
Dewpoint -25°C / -13°F
Humidity 77%
Altimeter 30.01" Hg
Pressure 1026.3 hPa
Elevation 1119
METAR KGTF 231353Z 25007KT 10SM CLR M22/M25 A3001 RMK AO2 SLP263 T12221250
Observed Flight Rules
Feb-23 @ 13:53 UTC
(47 minutes ago)
VFR
Wind Visibility
250° at 7 knots 10 miles
Clouds
  • Clear skies
Temperature Dewpoint
-22°C / -8°F -25°C / -13°F
Humidity Altimeter Pressure
77% 30.01" Hg 1026.3 hPa